Time;durP1;ratioP1;P1;durP2;ratioP2;P2;SDS_P1;SDS_P2;PMS_P1;PMS_P2;Temp;Humidity;BMP_temperature;BMP_pressure;BME280_temperature;BME280_humidity;BME280_pressure;Samples;Min_cycle;Max_cycle;Signal;HPM_P1;HPM_P2
2022/05/16 00:01:08;;;;;;;7.18;4.57;;;13.50;99.90;;;;;;2223597;64;20235;-75
2022/05/16 00:03:48;;;;;;;5.80;3.45;;;13.40;99.90;;;;;;2221776;64;20276;-76
2022/05/16 00:06:25;;;;;;;7.75;3.38;;;13.50;99.90;;;;;;2220529;64;20301;-75
2022/05/16 00:09:03;;;;;;;12.20;4.53;;;13.50;99.90;;;;;;2221943;64;20192;-75
2022/05/16 00:11:43;;;;;;;8.52;4.40;;;13.50;99.90;;;;;;2221504;64;20171;-75
2022/05/16 00:14:23;;;;;;;8.95;4.97;;;13.60;99.90;;;;;;2223144;64;20682;-75
2022/05/16 00:17:00;;;;;;;7.50;4.07;;;13.50;99.90;;;;;;2225174;64;20199;-74
2022/05/16 00:23:50;;;;;;;6.65;4.03;;;13.50;99.90;;;;;;2204539;64;20318;-75
2022/05/16 00:26:29;;;;;;;6.95;4.18;;;13.50;99.90;;;;;;2204919;64;20234;-75
2022/05/16 00:29:06;;;;;;;8.48;3.80;;;13.50;99.90;;;;;;2205068;64;20606;-75
2022/05/16 00:39:59;;;;;;;5.78;3.50;;;13.60;99.90;;;;;;2202333;64;20182;-75
2022/05/16 00:42:37;;;;;;;7.53;4.32;;;13.50;99.90;;;;;;2202415;64;20405;-75
2022/05/16 00:49:28;;;;;;;5.97;3.70;;;13.50;99.90;;;;;;2205943;64;20419;-75
2022/05/16 00:52:11;;;;;;;6.00;3.40;;;13.60;99.90;;;;;;2204586;64;20217;-75
2022/05/16 00:54:59;;;;;;;7.22;3.88;;;13.50;99.90;;;;;;2203598;64;20165;-75
2022/05/16 00:57:44;;;;;;;5.95;3.33;;;13.50;99.90;;;;;;2214785;64;20383;-74
2022/05/16 01:00:28;;;;;;;4.70;3.07;;;13.50;99.90;;;;;;2221234;64;20287;-75
2022/05/16 01:06:11;;;;;;;3.40;2.75;;;13.60;99.70;;;;;;2221212;64;20239;-75
2022/05/16 01:20:48;;;;;;;7.28;2.97;;;13.50;99.00;;;;;;2219695;64;20171;-74
2022/05/16 01:23:58;;;;;;;7.43;2.72;;;13.40;98.80;;;;;;2222326;64;20341;-74
2022/05/16 01:26:39;;;;;;;3.90;2.78;;;13.40;98.70;;;;;;2221265;64;20179;-75
2022/05/16 01:29:20;;;;;;;7.60;3.42;;;13.30;98.70;;;;;;2220940;64;20710;-76
2022/05/16 01:51:19;;;;;;;2.90;2.60;;;13.20;97.70;;;;;;2221596;64;20199;-75
2022/05/16 01:53:57;;;;;;;5.18;2.17;;;13.20;97.60;;;;;;2224121;64;20206;-75
2022/05/16 01:56:44;;;;;;;3.72;2.13;;;13.20;97.60;;;;;;2223631;64;20191;-75
2022/05/16 02:03:26;;;;;;;2.47;2.20;;;13.10;97.40;;;;;;2205200;64;20248;-75
2022/05/16 02:06:03;;;;;;;3.45;2.15;;;13.20;97.50;;;;;;2205987;64;20589;-75
2022/05/16 02:08:43;;;;;;;3.78;2.90;;;13.00;97.50;;;;;;2207169;64;20346;-76
2022/05/16 02:30:28;;;;;;;2.95;1.92;;;12.90;97.40;;;;;;2212710;64;20372;-74
2022/05/16 02:33:06;;;;;;;4.57;2.70;;;12.90;97.20;;;;;;2223607;64;20302;-74
2022/05/16 02:47:00;;;;;;;3.20;2.08;;;12.70;96.90;;;;;;2220969;64;20758;-75
2022/05/16 03:18:10;;;;;;;3.47;2.08;;;12.30;96.80;;;;;;2223936;64;20254;-75
2022/05/16 03:20:52;;;;;;;2.60;2.10;;;12.20;96.90;;;;;;2222024;64;20649;-76
2022/05/16 03:23:33;;;;;;;2.65;1.83;;;12.30;97.10;;;;;;2222460;64;20255;-75
2022/05/16 03:26:13;;;;;;;4.18;1.88;;;12.20;97.20;;;;;;2222606;64;20220;-74
2022/05/16 03:28:52;;;;;;;3.03;2.25;;;12.20;97.20;;;;;;2221476;64;20268;-75
2022/05/16 03:31:29;;;;;;;5.70;2.65;;;12.20;97.30;;;;;;2221194;64;20195;-75
2022/05/16 03:34:09;;;;;;;5.93;2.97;;;12.10;97.30;;;;;;2223732;64;20175;-75
2022/05/16 03:40:42;;;;;;;5.28;2.50;;;12.10;97.30;;;;;;2222955;64;20197;-74
2022/05/16 03:43:20;;;;;;;6.03;3.05;;;12.10;97.40;;;;;;2222749;64;20162;-74
2022/05/16 03:46:02;;;;;;;3.90;2.05;;;12.00;97.50;;;;;;2222216;64;20278;-74
2022/05/16 03:48:51;;;;;;;3.38;1.73;;;12.00;97.50;;;;;;2221223;64;20424;-74
2022/05/16 04:06:34;;;;;;;6.10;2.38;;;11.90;97.50;;;;;;2222488;64;20301;-74
2022/05/16 04:09:13;;;;;;;4.00;2.25;;;12.00;97.60;;;;;;2222850;64;20383;-75
2022/05/16 04:11:56;;;;;;;3.30;2.00;;;11.90;97.60;;;;;;2221958;64;20206;-76
2022/05/16 04:14:33;;;;;;;3.90;1.98;;;12.00;97.70;;;;;;2224403;64;20175;-75
2022/05/16 04:20:51;;;;;;;4.30;2.40;;;12.00;97.70;;;;;;2223087;64;20196;-75
2022/05/16 04:23:28;;;;;;;4.63;2.50;;;11.90;97.60;;;;;;2221562;64;20622;-75
2022/05/16 04:26:07;;;;;;;4.55;2.25;;;12.00;97.70;;;;;;2225384;64;20308;-75
2022/05/16 04:28:46;;;;;;;7.13;1.98;;;12.00;97.70;;;;;;2222359;64;20215;-75
2022/05/16 04:31:27;;;;;;;2.90;1.98;;;12.00;97.70;;;;;;2220728;64;21053;-74
2022/05/16 04:34:10;;;;;;;;;;;12.10;97.80;;;;;;2222531;64;20180;-74
2022/05/16 04:36:52;;;;;;;2.30;2.08;;;12.10;97.50;;;;;;2223097;64;20570;-75
2022/05/16 04:40:14;;;;;;;3.88;1.90;;;12.10;97.60;;;;;;2223725;64;20520;-75
2022/05/16 04:42:53;;;;;;;2.47;1.65;;;12.10;97.60;;;;;;2222205;64;20847;-77
2022/05/16 04:45:34;;;;;;;4.60;2.58;;;12.20;97.70;;;;;;2223093;64;20243;-75
2022/05/16 04:48:14;;;;;;;5.30;2.25;;;12.20;97.70;;;;;;2222127;64;20188;-74
2022/05/16 04:50:50;;;;;;;5.40;2.25;;;12.30;97.60;;;;;;2221714;64;20164;-75
2022/05/16 04:58:02;;;;;;;3.67;2.35;;;12.30;97.50;;;;;;2223655;64;20235;-75
2022/05/16 05:00:39;;;;;;;5.32;2.53;;;12.40;97.40;;;;;;2223869;64;20636;-75
2022/05/16 05:03:18;;;;;;;3.08;2.20;;;12.40;97.40;;;;;;2222325;64;20312;-74
2022/05/16 05:16:24;;;;;;;6.43;2.63;;;12.60;97.10;;;;;;2222137;64;20237;-75
2022/05/16 05:34:43;;;;;;;4.50;2.58;;;13.20;96.70;;;;;;2221063;64;20252;-78
2022/05/16 05:37:27;;;;;;;4.30;2.35;;;13.20;96.60;;;;;;2221712;64;20330;-78
2022/05/16 05:40:07;;;;;;;7.60;2.38;;;13.30;96.40;;;;;;2223261;64;20208;-77
2022/05/16 05:42:44;;;;;;;5.35;2.67;;;13.40;96.30;;;;;;2222231;64;20326;-77
2022/05/16 05:45:25;;;;;;;4.97;2.67;;;13.50;96.10;;;;;;2223268;64;20233;-78
2022/05/16 05:48:02;;;;;;;5.57;2.50;;;13.60;96.00;;;;;;2224216;64;20275;-77
2022/05/16 05:50:41;;;;;;;4.60;2.60;;;13.60;95.80;;;;;;2224285;64;20163;-78
2022/05/16 05:53:20;;;;;;;4.50;2.40;;;13.60;95.70;;;;;;2223202;64;20517;-79
2022/05/16 05:55:56;;;;;;;5.53;2.88;;;13.70;95.70;;;;;;2223826;64;20197;-78
2022/05/16 05:58:33;;;;;;;5.55;2.22;;;13.60;95.60;;;;;;2223085;64;20184;-77
2022/05/16 06:04:51;;;;;;;8.85;2.83;;;13.70;95.50;;;;;;2222695;64;20335;-76
2022/05/16 06:07:29;;;;;;;5.18;2.35;;;13.70;95.60;;;;;;2221319;64;20192;-77
2022/05/16 06:10:09;;;;;;;5.28;2.10;;;13.70;95.60;;;;;;2229906;64;20611;-77
2022/05/16 06:12:54;;;;;;;5.63;3.03;;;13.60;95.60;;;;;;2219991;64;20188;-78
2022/05/16 06:15:34;;;;;;;3.15;2.05;;;13.60;95.60;;;;;;2229462;64;20192;-78
2022/05/16 06:18:11;;;;;;;5.55;2.55;;;13.70;95.60;;;;;;2228117;64;20163;-78
2022/05/16 06:20:50;;;;;;;3.28;2.38;;;13.70;95.60;;;;;;2223478;64;20685;-78
2022/05/16 06:23:30;;;;;;;5.00;2.72;;;13.70;95.70;;;;;;2224466;64;20189;-76
2022/05/16 06:26:00;;;;;;;8.63;2.45;;;14.40;95.80;;;;;;2229203;64;20183;-77
2022/05/16 06:28:37;;;;;;;7.93;3.33;;;13.80;95.70;;;;;;2223796;64;20226;-78
2022/05/16 06:31:10;;;;;;;4.97;2.95;;;14.10;95.80;;;;;;2222798;64;20594;-77
2022/05/16 06:33:45;;;;;;;7.20;2.58;;;13.80;95.70;;;;;;2225738;64;20200;-78
2022/05/16 06:36:15;;;;;;;3.78;2.55;;;13.90;95.60;;;;;;2230360;64;20167;-77
2022/05/16 06:38:57;;;;;;;6.40;3.10;;;14.20;95.60;;;;;;2224110;64;20314;-78
2022/05/16 06:41:38;;;;;;;4.75;2.53;;;14.10;95.60;;;;;;2222925;64;20486;-78
2022/05/16 06:44:19;;;;;;;5.18;2.58;;;14.20;95.60;;;;;;2223885;64;20220;-78
2022/05/16 06:46:56;;;;;;;9.30;2.95;;;14.30;95.50;;;;;;2223658;64;20251;-79
2022/05/16 06:49:35;;;;;;;4.40;2.50;;;14.50;95.60;;;;;;2223484;64;20243;-77
2022/05/16 06:52:16;;;;;;;6.38;3.00;;;14.60;95.20;;;;;;2223463;64;20216;-77
2022/05/16 06:54:54;;;;;;;3.63;2.65;;;15.00;95.00;;;;;;2223541;64;20189;-77
2022/05/16 06:57:35;;;;;;;9.48;2.80;;;14.90;94.60;;;;;;2224249;64;20276;-76
2022/05/16 07:00:15;;;;;;;4.82;2.70;;;15.00;94.50;;;;;;2224522;64;20532;-78
2022/05/16 07:02:52;;;;;;;4.60;2.40;;;15.10;94.30;;;;;;2224688;64;20244;-78
2022/05/16 07:05:30;;;;;;;6.65;2.78;;;15.90;94.30;;;;;;2224477;64;20669;-78
2022/05/16 07:08:08;;;;;;;6.10;2.22;;;15.30;94.00;;;;;;2224081;64;20862;-77
2022/05/16 07:10:46;;;;;;;5.30;2.30;;;15.40;93.80;;;;;;2224014;64;20279;-77
2022/05/16 07:13:21;;;;;;;7.95;3.13;;;15.50;93.70;;;;;;2224243;64;20609;-78
2022/05/16 07:15:59;;;;;;;8.13;2.70;;;15.60;93.40;;;;;;2223519;64;20179;-78
2022/05/16 07:18:36;;;;;;;7.03;2.97;;;15.80;93.10;;;;;;2223458;64;20247;-77
2022/05/16 07:21:13;;;;;;;8.63;2.72;;;15.80;93.00;;;;;;2223011;64;20159;-79
2022/05/16 07:23:54;;;;;;;5.82;3.75;;;16.00;92.80;;;;;;2223049;64;20192;-76
2022/05/16 07:29:30;;;;;;;6.40;2.65;;;16.10;92.50;;;;;;2223196;64;20323;-80
2022/05/16 07:32:17;;;;;;;6.82;2.65;;;16.20;92.50;;;;;;2224692;64;20196;-75
2022/05/16 07:35:03;;;;;;;7.60;3.05;;;16.30;92.30;;;;;;2224128;64;20155;-71
2022/05/16 07:37:42;;;;;;;5.07;2.58;;;16.50;92.10;;;;;;2224149;64;20185;-74
2022/05/16 07:40:36;;;;;;;7.85;2.97;;;16.60;91.90;;;;;;2224127;64;20574;-75
2022/05/16 07:43:17;;;;;;;6.47;2.33;;;16.80;91.80;;;;;;2224138;64;20291;-77
2022/05/16 07:45:57;;;;;;;8.07;3.35;;;16.90;91.60;;;;;;2224420;64;20159;-76
2022/05/16 07:48:38;;;;;;;7.80;2.63;;;17.10;91.30;;;;;;2224170;64;20218;-72
2022/05/16 07:51:17;;;;;;;7.18;2.97;;;17.10;91.10;;;;;;2224188;64;20185;-77
2022/05/16 07:54:04;;;;;;;6.88;3.25;;;17.20;90.90;;;;;;2224397;64;20666;-76
2022/05/16 07:56:42;;;;;;;6.00;2.60;;;17.40;90.60;;;;;;2224336;64;20267;-77
2022/05/16 07:59:29;;;;;;;6.32;3.65;;;17.50;90.40;;;;;;2224282;64;20175;-77
2022/05/16 08:02:07;;;;;;;4.72;2.83;;;17.60;90.20;;;;;;2224105;64;20207;-78
2022/05/16 10:16:20;;;;;;;6.68;2.40;;;23.70;66.90;;;;;;2223136;64;20286;-78
2022/05/16 10:19:15;;;;;;;4.32;2.38;;;24.30;66.10;;;;;;2215276;64;20192;-78
2022/05/16 10:22:19;;;;;;;10.45;3.00;;;24.90;64.70;;;;;;2215517;64;20218;-79
2022/05/16 10:25:01;;;;;;;8.18;3.08;;;25.40;63.40;;;;;;2215633;64;20182;-77
2022/05/16 10:27:42;;;;;;;7.13;3.17;;;25.90;61.50;;;;;;2215598;64;20197;-78
2022/05/16 10:30:25;;;;;;;7.35;3.75;;;26.40;60.80;;;;;;2215585;64;20172;-79
2022/05/16 10:36:04;;;;;;;8.55;3.20;;;27.20;57.90;;;;;;2215661;64;20653;-78
2022/05/16 10:38:46;;;;;;;5.15;2.90;;;27.50;56.60;;;;;;2215812;64;20304;-78
2022/05/16 10:41:29;;;;;;;6.30;2.70;;;27.80;56.30;;;;;;2216636;64;20190;-77
2022/05/16 10:44:29;;;;;;;5.35;3.28;;;27.90;55.40;;;;;;2216145;64;20180;-78
2022/05/16 10:47:24;;;;;;;5.97;2.50;;;28.20;54.90;;;;;;2215453;64;20188;-76
2022/05/16 10:50:21;;;;;;;5.68;2.92;;;28.00;55.00;;;;;;2215432;64;20215;-76
2022/05/16 10:53:11;;;;;;;7.10;2.80;;;28.10;54.30;;;;;;2215397;64;20176;-78
2022/05/16 10:56:21;;;;;;;4.25;2.80;;;28.90;53.70;;;;;;2215520;64;20171;-79
2022/05/16 10:59:44;;;;;;;6.45;2.88;;;29.90;52.80;;;;;;2215508;64;20168;-80
2022/05/16 11:02:40;;;;;;;5.10;2.60;;;30.00;51.80;;;;;;2184011;65;20651;-80
2022/05/16 11:05:39;;;;;;;6.68;2.72;;;29.90;50.80;;;;;;2183887;65;20179;-81
2022/05/16 11:08:46;;;;;;;5.15;2.92;;;30.00;51.20;;;;;;2184215;65;20797;-79
2022/05/16 11:11:41;;;;;;;8.60;2.83;;;30.10;50.60;;;;;;2183953;65;20294;-78
2022/05/16 11:14:28;;;;;;;3.72;2.60;;;30.40;49.80;;;;;;2183920;65;20286;-79
2022/05/16 11:17:17;;;;;;;7.43;3.17;;;30.40;49.00;;;;;;2183849;65;20159;-76
2022/05/16 11:20:20;;;;;;;3.17;2.30;;;30.10;49.30;;;;;;2183848;65;20196;-79
2022/05/16 11:23:11;;;;;;;3.38;2.78;;;29.70;49.80;;;;;;2183870;65;20179;-78
2022/05/16 11:25:59;;;;;;;7.40;2.88;;;29.30;49.20;;;;;;2183918;65;20683;-80
2022/05/16 11:32:17;;;;;;;11.13;2.90;;;28.60;49.00;;;;;;2183829;65;20743;-77
2022/05/16 11:35:09;;;;;;;5.57;3.25;;;28.30;50.40;;;;;;2185949;64;20229;-79
2022/05/16 11:38:14;;;;;;;6.50;3.00;;;28.00;50.40;;;;;;2215596;64;20227;-79
2022/05/16 11:41:02;;;;;;;5.75;2.45;;;27.80;50.80;;;;;;2215743;64;20243;-78
2022/05/16 11:43:47;;;;;;;5.82;2.80;;;27.70;51.70;;;;;;2215154;64;20185;-79
2022/05/16 11:46:41;;;;;;;7.68;2.80;;;27.50;51.60;;;;;;2214467;64;20201;-79
2022/05/16 11:49:24;;;;;;;8.80;2.80;;;27.50;51.70;;;;;;2215245;64;20201;-79
2022/05/16 11:52:27;;;;;;;5.25;2.72;;;27.50;51.50;;;;;;2215293;64;20184;-78
2022/05/16 12:01:37;;;;;;;6.95;2.70;;;27.70;52.10;;;;;;2215414;64;20711;-77
2022/05/16 12:04:22;;;;;;;5.78;2.78;;;27.70;52.30;;;;;;2214664;64;20199;-78
2022/05/16 12:06:59;;;;;;;;;;;28.00;52.20;;;;;;2215917;64;20623;-78
2022/05/16 12:09:50;;;;;;;7.95;4.10;;;27.80;52.60;;;;;;2215849;64;20550;-79
2022/05/16 12:12:37;;;;;;;5.07;2.95;;;27.80;52.60;;;;;;2217798;64;20172;-80
2022/05/16 12:15:16;;;;;;;6.00;3.58;;;27.70;52.30;;;;;;2216955;64;20164;-80
2022/05/16 12:18:06;;;;;;;9.00;3.58;;;27.60;52.90;;;;;;2215832;64;20172;-79
2022/05/16 12:20:42;;;;;;;4.97;3.45;;;27.50;53.50;;;;;;2216381;64;20160;-78
2022/05/16 12:24:28;;;;;;;;;;;;;;;;;;;;;
2022/05/16 12:27:45;;;;;;;10.02;3.70;;;27.80;54.20;;;;;;2170273;65;20196;-81
2022/05/16 12:30:37;;;;;;;10.60;4.47;;;27.70;53.80;;;;;;2180861;65;20327;-77
2022/05/16 12:33:23;;;;;;;6.32;3.42;;;27.50;53.90;;;;;;2184749;65;20570;-75
2022/05/16 12:36:01;;;;;;;10.18;3.42;;;27.00;54.60;;;;;;2184600;65;20192;-77
2022/05/16 12:38:37;;;;;;;8.55;4.28;;;26.70;55.50;;;;;;2195959;65;20275;-75
2022/05/16 12:41:51;;;;;;;8.70;4.13;;;26.40;55.50;;;;;;2192120;65;20169;-76
2022/05/16 12:44:41;;;;;;;7.15;3.42;;;26.20;56.10;;;;;;2192090;65;20723;-75
2022/05/16 12:47:34;;;;;;;8.45;4.05;;;25.90;56.70;;;;;;2192150;65;20166;-76
2022/05/16 12:50:29;;;;;;;8.00;3.78;;;25.70;57.70;;;;;;2192110;65;20170;-75
2022/05/16 12:53:23;;;;;;;9.07;3.65;;;25.50;58.10;;;;;;2192005;65;20210;-76
2022/05/16 12:56:20;;;;;;;13.45;4.63;;;25.40;58.80;;;;;;2192113;65;20314;-76
2022/05/16 12:59:33;;;;;;;8.55;4.07;;;25.30;59.10;;;;;;2191884;65;20359;-76
2022/05/16 13:02:26;;;;;;;8.32;3.80;;;25.20;59.30;;;;;;2208406;64;20164;-76
2022/05/16 13:05:14;;;;;;;;;;;25.30;59.60;;;;;;2216245;64;20211;-76
2022/05/16 13:08:27;;;;;;;10.85;4.50;;;25.30;59.60;;;;;;2215840;64;20032;-76
2022/05/16 13:11:25;;;;;;;8.52;4.97;;;25.40;59.60;;;;;;2215885;64;20273;-76
2022/05/16 13:14:15;;;;;;;7.35;4.07;;;25.70;59.40;;;;;;2215927;64;20561;-76
2022/05/16 13:17:07;;;;;;;6.88;3.88;;;26.10;58.90;;;;;;2215833;64;20252;-76
2022/05/16 13:19:46;;;;;;;5.97;3.67;;;26.20;58.40;;;;;;2215147;64;20202;-75
2022/05/16 13:22:24;;;;;;;13.23;4.07;;;26.50;59.20;;;;;;2215794;64;20198;-76
2022/05/16 13:25:07;;;;;;;9.25;5.00;;;26.90;58.30;;;;;;2215809;64;20156;-75
2022/05/16 13:30:48;;;;;;;8.77;4.82;;;27.20;57.50;;;;;;2215785;64;20682;-76
2022/05/16 13:33:34;;;;;;;6.97;4.50;;;27.10;57.80;;;;;;2215869;64;20220;-76
2022/05/16 13:36:20;;;;;;;9.23;4.13;;;27.10;58.10;;;;;;2215600;64;20666;-75
2022/05/16 13:39:11;;;;;;;7.65;3.97;;;26.90;58.40;;;;;;2215753;64;20172;-76
2022/05/16 13:42:02;;;;;;;9.70;4.50;;;26.70;58.80;;;;;;2215417;64;20220;-77
2022/05/16 13:44:45;;;;;;;10.80;4.47;;;26.60;59.00;;;;;;2215593;64;20338;-76
2022/05/16 13:47:28;;;;;;;9.30;4.65;;;26.40;58.50;;;;;;2215651;64;20217;-78
2022/05/16 13:50:20;;;;;;;8.38;3.78;;;26.20;58.70;;;;;;2215728;64;20223;-77
2022/05/16 13:53:01;;;;;;;11.18;4.22;;;25.90;59.10;;;;;;2215658;64;20194;-77
2022/05/16 13:55:50;;;;;;;7.95;4.22;;;25.70;59.90;;;;;;2215689;64;20168;-76
2022/05/16 13:58:32;;;;;;;9.23;4.65;;;25.60;60.50;;;;;;2215631;64;20680;-77
2022/05/16 14:01:17;;;;;;;7.88;4.93;;;25.80;60.90;;;;;;2215607;64;20633;-78
2022/05/16 14:04:04;;;;;;;8.63;5.70;;;25.40;61.50;;;;;;2215590;64;20214;-78
2022/05/16 14:06:49;;;;;;;8.13;5.07;;;25.30;61.90;;;;;;2215639;64;20288;-78
2022/05/16 14:09:50;;;;;;;7.82;5.05;;;25.20;62.00;;;;;;2215544;64;20223;-78
2022/05/16 14:12:52;;;;;;;9.77;6.05;;;25.10;62.20;;;;;;2215480;64;20176;-76
2022/05/16 14:15:51;;;;;;;8.48;5.63;;;25.20;62.30;;;;;;2215620;64;20596;-78
2022/05/16 14:37:40;;;;;;;9.85;7.07;;;29.70;56.00;;;;;;2220157;64;20299;-76
2022/05/16 14:40:23;;;;;;;9.30;7.18;;;29.80;55.60;;;;;;2216578;64;20366;-77
2022/05/16 14:43:13;;;;;;;10.82;8.00;;;30.00;55.40;;;;;;2220793;64;20256;-78
2022/05/16 14:48:50;;;;;;;10.40;8.00;;;31.10;53.90;;;;;;2214091;64;20180;-77
2022/05/16 14:51:28;;;;;;;12.45;7.53;;;31.30;53.50;;;;;;2213890;64;20171;-77
2022/05/16 14:54:16;;;;;;;12.18;8.52;;;31.00;53.60;;;;;;2214266;64;20273;-78
2022/05/16 14:56:53;;;;;;;10.55;8.25;;;30.50;53.50;;;;;;2213930;64;20184;-75
2022/05/16 14:59:30;;;;;;;10.88;9.73;;;30.10;54.20;;;;;;2213812;64;20176;-77
2022/05/16 15:41:50;;;;;;;15.85;10.77;;;24.40;73.50;;;;;;2220220;64;20268;-76
2022/05/16 15:44:34;;;;;;;16.50;13.38;;;24.00;76.90;;;;;;2207088;65;20349;-76
2022/05/16 15:47:21;;;;;;;15.93;13.85;;;23.80;77.40;;;;;;2205206;64;20680;-75
2022/05/16 15:50:03;;;;;;;19.92;15.13;;;23.50;79.70;;;;;;2207279;65;20173;-78
2022/05/16 15:52:43;;;;;;;21.23;15.85;;;23.20;81.70;;;;;;2207786;64;20328;-78
2022/05/16 15:55:21;;;;;;;19.13;15.40;;;22.90;84.30;;;;;;2207675;65;20290;-76
2022/05/16 15:57:59;;;;;;;18.98;16.25;;;22.70;86.50;;;;;;2208926;64;20172;-76
2022/05/16 16:01:30;;;;;;;18.70;16.58;;;22.50;88.30;;;;;;2216455;64;20180;-76
2022/05/16 16:09:55;;;;;;;19.17;14.83;;;21.60;93.00;;;;;;2207643;65;20290;-79
2022/05/16 16:12:36;;;;;;;19.73;16.30;;;21.20;94.70;;;;;;2209980;64;20213;-76
2022/05/16 16:15:16;;;;;;;19.58;15.93;;;20.80;95.90;;;;;;2209938;64;20346;-77
2022/05/16 16:17:56;;;;;;;21.08;15.57;;;20.40;97.30;;;;;;2205362;64;20333;-75
2022/05/16 16:20:37;;;;;;;21.83;16.83;;;20.00;98.60;;;;;;2204993;64;20173;-77
2022/05/16 16:23:16;;;;;;;24.70;17.73;;;19.70;99.10;;;;;;2222589;64;20190;-76
2022/05/16 16:25:56;;;;;;;25.38;19.13;;;19.60;99.70;;;;;;2222347;64;20201;-76
2022/05/16 16:28:33;;;;;;;29.52;17.60;;;19.50;99.90;;;;;;2222629;64;20642;-75
2022/05/16 16:31:17;;;;;;;25.45;19.23;;;19.50;99.90;;;;;;2231123;64;20171;-76
2022/05/16 16:33:54;;;;;;;21.02;17.50;;;19.50;99.90;;;;;;2228919;64;20326;-75
2022/05/16 16:36:35;;;;;;;26.90;20.33;;;19.70;99.90;;;;;;2225997;64;20206;-75
2022/05/16 16:39:15;;;;;;;24.60;18.70;;;19.50;99.90;;;;;;2224664;64;20672;-76
2022/05/16 16:41:53;;;;;;;22.23;17.83;;;19.50;99.90;;;;;;2227935;64;20291;-76
2022/05/16 16:44:29;;;;;;;29.02;16.90;;;19.60;99.90;;;;;;2221573;64;20229;-75
2022/05/16 16:47:07;;;;;;;26.45;18.58;;;19.70;99.90;;;;;;2221693;64;20346;-78
2022/05/16 16:49:44;;;;;;;24.33;17.52;;;19.70;99.90;;;;;;2221112;64;20207;-75
2022/05/16 16:58:15;;;;;;;29.48;19.95;;;19.70;99.90;;;;;;2219765;64;20199;-75
2022/05/16 17:00:55;;;;;;;27.15;17.55;;;19.60;99.90;;;;;;2221115;64;20191;-76
2022/05/16 17:03:34;;;;;;;29.75;19.02;;;19.60;99.90;;;;;;2221474;64;20214;-75
2022/05/16 17:06:12;;;;;;;28.60;18.63;;;19.50;99.90;;;;;;2222207;64;20223;-76
2022/05/16 17:08:58;;;;;;;27.92;20.08;;;19.40;99.90;;;;;;2221757;64;20282;-74
2022/05/16 17:11:43;;;;;;;25.70;18.40;;;19.30;99.90;;;;;;2218358;64;20213;-75
2022/05/16 17:14:20;;;;;;;25.05;18.48;;;19.20;99.90;;;;;;2221865;64;20283;-76
2022/05/16 17:17:00;;;;;;;28.70;19.70;;;19.20;99.90;;;;;;2220929;64;20653;-76
2022/05/16 17:19:41;;;;;;;34.13;20.98;;;19.10;99.90;;;;;;2221852;64;21064;-75
2022/05/16 17:22:18;;;;;;;33.25;20.42;;;19.20;99.90;;;;;;2222042;64;20182;-76
2022/05/16 17:24:58;;;;;;;28.10;20.15;;;19.10;99.90;;;;;;2228158;64;20703;-79
2022/05/16 17:27:38;;;;;;;30.85;19.52;;;19.10;99.90;;;;;;2224283;64;20303;-79
2022/05/16 17:30:19;;;;;;;30.10;19.48;;;19.10;99.90;;;;;;2221563;64;20325;-82
2022/05/16 17:33:07;;;;;;;30.52;20.55;;;19.10;99.90;;;;;;2222049;64;20195;-77
2022/05/16 17:35:45;;;;;;;33.80;20.38;;;19.00;99.90;;;;;;2221831;64;20204;-75
2022/05/16 17:38:26;;;;;;;37.63;21.65;;;18.90;99.90;;;;;;2223176;64;20234;-77
2022/05/16 17:41:09;;;;;;;35.13;21.52;;;18.80;99.90;;;;;;2229719;64;20300;-76
2022/05/16 17:43:45;;;;;;;32.47;22.17;;;18.80;99.90;;;;;;2229748;64;20359;-77
2022/05/16 17:46:23;;;;;;;35.67;22.20;;;18.80;99.90;;;;;;2229710;64;20171;-78
2022/05/16 17:49:02;;;;;;;29.85;20.02;;;18.70;99.90;;;;;;2224521;64;20215;-76
2022/05/16 17:51:50;;;;;;;27.85;18.73;;;18.70;99.90;;;;;;2228320;64;20194;-76
2022/05/16 17:54:31;;;;;;;28.02;18.48;;;18.70;99.90;;;;;;2229554;64;20240;-76
2022/05/16 17:57:09;;;;;;;31.95;17.00;;;18.60;99.90;;;;;;2228895;64;20202;-76
2022/05/16 17:59:50;;;;;;;27.35;17.60;;;18.60;99.90;;;;;;2221968;64;20209;-77
2022/05/16 18:02:33;;;;;;;25.35;18.38;;;18.50;99.90;;;;;;2214471;64;20335;-75
2022/05/16 18:05:11;;;;;;;30.02;18.48;;;18.60;99.90;;;;;;2220332;64;20199;-78
2022/05/16 18:07:51;;;;;;;28.05;17.52;;;18.50;99.90;;;;;;2224723;64;20240;-76
2022/05/16 18:12:41;;;;;;;29.85;18.08;;;18.50;99.90;;;;;;2228069;64;20278;-75
2022/05/16 18:13:26;;;;;;;28.10;17.13;;;18.60;99.90;;;;;;2231169;64;20175;-77
2022/05/16 18:16:03;;;;;;;28.42;17.40;;;18.40;99.90;;;;;;2225883;64;20171;-79
2022/05/16 18:18:41;;;;;;;25.60;16.63;;;18.50;99.90;;;;;;2223396;64;20309;-78
2022/05/16 18:21:20;;;;;;;28.00;16.00;;;18.40;99.90;;;;;;2223587;64;20171;-78
2022/05/16 18:23:57;;;;;;;27.75;17.17;;;18.40;99.90;;;;;;2221906;64;20167;-78
2022/05/16 18:26:34;;;;;;;28.77;15.25;;;18.30;99.90;;;;;;2228116;64;20227;-79
2022/05/16 18:29:12;;;;;;;26.45;18.27;;;18.30;99.90;;;;;;2222433;64;20320;-76
2022/05/16 18:31:51;;;;;;;26.05;16.33;;;18.30;99.90;;;;;;2221078;64;20313;-78
2022/05/16 18:34:29;;;;;;;26.73;17.42;;;18.30;99.90;;;;;;2219152;64;20267;-77
2022/05/16 18:37:10;;;;;;;26.75;18.63;;;18.30;99.90;;;;;;2218460;64;20180;-78
2022/05/16 18:39:50;;;;;;;33.15;16.88;;;18.10;99.90;;;;;;2220020;64;20187;-78
2022/05/16 18:51:29;;;;;;;25.98;15.68;;;17.40;99.90;;;;;;2220497;64;20163;-77
2022/05/16 18:54:06;;;;;;;28.08;16.80;;;17.40;99.90;;;;;;2219498;64;20188;-77
2022/05/16 18:56:43;;;;;;;26.48;16.55;;;17.30;99.90;;;;;;2220476;64;20189;-78
2022/05/16 18:59:22;;;;;;;29.75;15.82;;;17.30;99.90;;;;;;2221141;64;20164;-77
2022/05/16 19:02:05;;;;;;;26.02;15.05;;;17.40;99.90;;;;;;2220756;64;20187;-76
2022/05/16 19:04:43;;;;;;;25.17;15.20;;;17.60;99.90;;;;;;2218710;64;20172;-76
2022/05/16 19:11:14;;;;;;;24.90;14.73;;;17.50;99.90;;;;;;2224123;64;20678;-76
2022/05/16 19:13:51;;;;;;;23.92;13.68;;;17.50;99.90;;;;;;2219083;64;20185;-77
2022/05/16 19:16:28;;;;;;;20.77;12.85;;;17.50;99.90;;;;;;2220655;64;20276;-76
2022/05/16 19:19:06;;;;;;;23.30;13.60;;;17.60;99.90;;;;;;2219288;64;20215;-78
2022/05/16 19:21:44;;;;;;;21.67;12.35;;;17.60;99.90;;;;;;2220815;64;20167;-75
2022/05/16 19:24:29;;;;;;;18.00;12.07;;;17.60;99.90;;;;;;2221157;64;20175;-76
2022/05/16 19:27:08;;;;;;;17.10;10.77;;;17.70;99.90;;;;;;2219519;64;20193;-72
2022/05/16 19:32:42;;;;;;;18.00;10.83;;;17.60;99.90;;;;;;2223562;64;20341;-77
2022/05/16 19:35:22;;;;;;;17.00;11.88;;;18.00;99.90;;;;;;2220945;64;20175;-77
2022/05/16 19:37:59;;;;;;;16.27;10.70;;;17.60;99.90;;;;;;2222214;64;20172;-76
2022/05/16 19:40:41;;;;;;;17.33;10.30;;;17.60;99.90;;;;;;2221218;64;20371;-77
2022/05/16 19:43:20;;;;;;;19.77;10.77;;;17.60;99.90;;;;;;2217696;64;20320;-76
2022/05/16 19:45:57;;;;;;;15.18;10.05;;;17.70;99.90;;;;;;2220992;64;20188;-76
2022/05/16 19:48:34;;;;;;;16.92;10.45;;;17.60;99.90;;;;;;2219917;64;20168;-78
2022/05/16 19:51:31;;;;;;;19.00;10.65;;;17.60;99.90;;;;;;2221500;64;20215;-75
2022/05/16 19:54:08;;;;;;;16.98;9.65;;;17.60;99.90;;;;;;2218318;64;20624;-75
2022/05/16 19:56:47;;;;;;;15.93;9.48;;;17.50;99.90;;;;;;2222444;64;20227;-76
2022/05/16 19:59:25;;;;;;;16.48;9.57;;;17.50;99.90;;;;;;2222058;64;20180;-77
2022/05/16 20:02:02;;;;;;;23.70;9.55;;;17.50;99.90;;;;;;2219335;64;20160;-76
2022/05/16 20:04:40;;;;;;;17.40;10.48;;;17.50;99.90;;;;;;2219206;64;20223;-76
2022/05/16 20:07:20;;;;;;;17.75;10.30;;;17.50;99.90;;;;;;2222573;64;20342;-78
2022/05/16 20:10:02;;;;;;;17.95;9.73;;;17.50;99.90;;;;;;2220577;64;20179;-76
2022/05/16 20:12:42;;;;;;;14.70;10.02;;;17.50;99.90;;;;;;2221309;64;20601;-77
2022/05/16 20:15:19;;;;;;;19.92;10.50;;;17.50;99.90;;;;;;2218674;64;20198;-75
2022/05/16 20:17:51;;;;;;;15.52;9.35;;;17.50;99.90;;;;;;2221133;64;20257;-77
2022/05/16 20:20:22;;;;;;;18.80;10.88;;;17.50;99.90;;;;;;2219865;64;20584;-76
2022/05/16 20:25:42;;;;;;;21.90;10.15;;;17.40;99.90;;;;;;2221001;64;20197;-76
2022/05/16 20:28:20;;;;;;;16.55;9.07;;;17.40;99.90;;;;;;2221964;64;20171;-76
2022/05/16 20:30:59;;;;;;;21.13;9.90;;;17.70;99.90;;;;;;2220910;64;20176;-77
2022/05/16 20:33:42;;;;;;;16.77;8.55;;;17.40;99.90;;;;;;2221566;64;20262;-75
2022/05/16 20:36:25;;;;;;;23.92;9.90;;;17.40;99.90;;;;;;2221297;64;20206;-76
2022/05/16 20:39:03;;;;;;;17.40;10.00;;;17.40;99.90;;;;;;2220151;64;20351;-76
2022/05/16 20:41:42;;;;;;;17.58;9.07;;;17.40;99.90;;;;;;2219524;64;20189;-76
2022/05/16 20:44:20;;;;;;;21.35;10.00;;;17.40;99.90;;;;;;2221235;64;20179;-77
2022/05/16 20:46:57;;;;;;;18.30;9.50;;;17.30;99.90;;;;;;2221932;64;20175;-74
2022/05/16 20:49:34;;;;;;;17.35;10.48;;;17.30;99.90;;;;;;2220439;64;20188;-75
2022/05/16 20:52:13;;;;;;;19.75;9.30;;;17.30;99.90;;;;;;2221734;64;20255;-77
2022/05/16 20:54:52;;;;;;;18.80;10.32;;;17.30;99.90;;;;;;2220697;64;20216;-76